sensor_id;sensor_type;location;lat;lon;timestamp;P1;durP1;ratioP1;P2;durP2;ratioP2
3000;SDS011;1510;51.072;6.678;2023-03-20T00:01:04;78.40;;;73.20;;
3000;SDS011;1510;51.072;6.678;2023-03-20T00:03:37;85.33;;;80.27;;
3000;SDS011;1510;51.072;6.678;2023-03-20T00:06:04;106.77;;;100.87;;
3000;SDS011;1510;51.072;6.678;2023-03-20T00:08:37;81.27;;;76.07;;
3000;SDS011;1510;51.072;6.678;2023-03-20T00:11:08;82.33;;;77.00;;
3000;SDS011;1510;51.072;6.678;2023-03-20T00:13:47;79.17;;;74.03;;
3000;SDS011;1510;51.072;6.678;2023-03-20T00:16:14;82.77;;;77.37;;
3000;SDS011;1510;51.072;6.678;2023-03-20T00:18:42;59.20;;;54.50;;
3000;SDS011;1510;51.072;6.678;2023-03-20T00:21:11;56.53;;;52.20;;
3000;SDS011;1510;51.072;6.678;2023-03-20T00:23:44;51.03;;;46.83;;
3000;SDS011;1510;51.072;6.678;2023-03-20T00:26:14;41.17;;;37.37;;
3000;SDS011;1510;51.072;6.678;2023-03-20T00:28:48;30.10;;;26.80;;
3000;SDS011;1510;51.072;6.678;2023-03-20T00:31:19;29.80;;;25.27;;
3000;SDS011;1510;51.072;6.678;2023-03-20T00:33:51;31.80;;;25.80;;
3000;SDS011;1510;51.072;6.678;2023-03-20T00:36:20;33.87;;;27.13;;
3000;SDS011;1510;51.072;6.678;2023-03-20T00:38:51;34.83;;;22.00;;
3000;SDS011;1510;51.072;6.678;2023-03-20T00:41:27;33.00;;;23.37;;
3000;SDS011;1510;51.072;6.678;2023-03-20T00:43:56;30.10;;;24.63;;
3000;SDS011;1510;51.072;6.678;2023-03-20T00:46:28;35.23;;;31.70;;
3000;SDS011;1510;51.072;6.678;2023-03-20T00:49:01;38.20;;;35.00;;
3000;SDS011;1510;51.072;6.678;2023-03-20T00:51:31;28.77;;;25.73;;
3000;SDS011;1510;51.072;6.678;2023-03-20T00:53:58;28.97;;;24.57;;
3000;SDS011;1510;51.072;6.678;2023-03-20T00:56:31;30.23;;;23.90;;
3000;SDS011;1510;51.072;6.678;2023-03-20T00:59:00;27.57;;;24.77;;
3000;SDS011;1510;51.072;6.678;2023-03-20T01:01:29;27.63;;;24.73;;
3000;SDS011;1510;51.072;6.678;2023-03-20T01:03:57;32.97;;;22.60;;
3000;SDS011;1510;51.072;6.678;2023-03-20T01:06:24;24.37;;;21.27;;
3000;SDS011;1510;51.072;6.678;2023-03-20T01:08:53;24.27;;;20.67;;
3000;SDS011;1510;51.072;6.678;2023-03-20T01:11:22;33.73;;;30.50;;
3000;SDS011;1510;51.072;6.678;2023-03-20T01:13:51;37.23;;;33.50;;
3000;SDS011;1510;51.072;6.678;2023-03-20T01:16:20;31.50;;;28.23;;
3000;SDS011;1510;51.072;6.678;2023-03-20T01:18:49;32.27;;;28.90;;
3000;SDS011;1510;51.072;6.678;2023-03-20T01:21:17;30.73;;;26.90;;
3000;SDS011;1510;51.072;6.678;2023-03-20T01:23:45;35.13;;;28.30;;
3000;SDS011;1510;51.072;6.678;2023-03-20T01:26:18;30.17;;;27.00;;
3000;SDS011;1510;51.072;6.678;2023-03-20T01:29:01;32.67;;;29.20;;
3000;SDS011;1510;51.072;6.678;2023-03-20T01:31:29;32.87;;;29.37;;
3000;SDS011;1510;51.072;6.678;2023-03-20T01:33:57;34.83;;;31.07;;
3000;SDS011;1510;51.072;6.678;2023-03-20T01:36:25;36.33;;;33.00;;
3000;SDS011;1510;51.072;6.678;2023-03-20T01:39:03;40.00;;;36.03;;
3000;SDS011;1510;51.072;6.678;2023-03-20T01:41:38;38.07;;;34.73;;
3000;SDS011;1510;51.072;6.678;2023-03-20T01:44:13;47.17;;;43.07;;
3000;SDS011;1510;51.072;6.678;2023-03-20T01:46:45;50.20;;;46.10;;
3000;SDS011;1510;51.072;6.678;2023-03-20T01:52:20;80.83;;;75.47;;
3000;SDS011;1510;51.072;6.678;2023-03-20T01:54:48;84.10;;;78.83;;
3000;SDS011;1510;51.072;6.678;2023-03-20T01:57:17;124.97;;;118.57;;
3000;SDS011;1510;51.072;6.678;2023-03-20T01:59:52;147.47;;;140.57;;
3000;SDS011;1510;51.072;6.678;2023-03-20T02:02:29;169.77;;;160.70;;
3000;SDS011;1510;51.072;6.678;2023-03-20T02:04:58;193.10;;;184.03;;
3000;SDS011;1510;51.072;6.678;2023-03-20T02:07:28;214.43;;;204.03;;
3000;SDS011;1510;51.072;6.678;2023-03-20T02:09:56;254.87;;;242.97;;
3000;SDS011;1510;51.072;6.678;2023-03-20T02:12:23;265.97;;;253.53;;
3000;SDS011;1510;51.072;6.678;2023-03-20T02:15:02;274.33;;;260.97;;
3000;SDS011;1510;51.072;6.678;2023-03-20T02:17:35;298.83;;;284.33;;
3000;SDS011;1510;51.072;6.678;2023-03-20T02:20:06;309.83;;;294.67;;
3000;SDS011;1510;51.072;6.678;2023-03-20T02:23:02;317.33;;;301.13;;
3000;SDS011;1510;51.072;6.678;2023-03-20T02:26:04;334.70;;;317.20;;
3000;SDS011;1510;51.072;6.678;2023-03-20T02:32:26;350.17;;;332.27;;
3000;SDS011;1510;51.072;6.678;2023-03-20T02:41:23;328.57;;;311.70;;
3000;SDS011;1510;51.072;6.678;2023-03-20T02:43:59;336.70;;;319.67;;
3000;SDS011;1510;51.072;6.678;2023-03-20T02:46:33;342.00;;;324.40;;
3000;SDS011;1510;51.072;6.678;2023-03-20T02:49:09;349.87;;;332.17;;
3000;SDS011;1510;51.072;6.678;2023-03-20T02:51:45;351.93;;;334.43;;
3000;SDS011;1510;51.072;6.678;2023-03-20T02:54:18;450.67;;;427.07;;
3000;SDS011;1510;51.072;6.678;2023-03-20T02:56:56;480.93;;;454.13;;
3000;SDS011;1510;51.072;6.678;2023-03-20T02:59:28;514.50;;;485.10;;
3000;SDS011;1510;51.072;6.678;2023-03-20T03:01:59;509.90;;;480.70;;
3000;SDS011;1510;51.072;6.678;2023-03-20T03:04:33;499.20;;;471.00;;
3000;SDS011;1510;51.072;6.678;2023-03-20T03:07:04;465.50;;;439.27;;
3000;SDS011;1510;51.072;6.678;2023-03-20T03:09:35;442.70;;;418.60;;
3000;SDS011;1510;51.072;6.678;2023-03-20T03:12:08;400.43;;;377.93;;
3000;SDS011;1510;51.072;6.678;2023-03-20T03:14:38;286.03;;;270.70;;
3000;SDS011;1510;51.072;6.678;2023-03-20T03:17:08;253.13;;;239.73;;
3000;SDS011;1510;51.072;6.678;2023-03-20T03:19:37;233.77;;;221.57;;
3000;SDS011;1510;51.072;6.678;2023-03-20T03:22:07;190.20;;;180.50;;
3000;SDS011;1510;51.072;6.678;2023-03-20T03:24:37;164.40;;;156.27;;
3000;SDS011;1510;51.072;6.678;2023-03-20T03:27:11;149.73;;;142.60;;
3000;SDS011;1510;51.072;6.678;2023-03-20T03:29:44;143.60;;;137.10;;
3000;SDS011;1510;51.072;6.678;2023-03-20T03:32:20;138.70;;;131.73;;
3000;SDS011;1510;51.072;6.678;2023-03-20T03:34:50;162.17;;;154.93;;
3000;SDS011;1510;51.072;6.678;2023-03-20T03:37:20;181.37;;;173.37;;
3000;SDS011;1510;51.072;6.678;2023-03-20T03:39:55;193.13;;;184.27;;
3000;SDS011;1510;51.072;6.678;2023-03-20T03:42:34;201.07;;;191.67;;
3000;SDS011;1510;51.072;6.678;2023-03-20T03:45:06;213.87;;;203.87;;
3000;SDS011;1510;51.072;6.678;2023-03-20T03:47:38;231.53;;;220.00;;
3000;SDS011;1510;51.072;6.678;2023-03-20T03:50:09;226.10;;;215.37;;
3000;SDS011;1510;51.072;6.678;2023-03-20T03:52:40;205.00;;;195.37;;
3000;SDS011;1510;51.072;6.678;2023-03-20T03:55:10;190.03;;;180.33;;
3000;SDS011;1510;51.072;6.678;2023-03-20T03:57:42;179.73;;;171.13;;
3000;SDS011;1510;51.072;6.678;2023-03-20T04:00:18;189.13;;;179.47;;
3000;SDS011;1510;51.072;6.678;2023-03-20T04:02:48;176.50;;;168.17;;
3000;SDS011;1510;51.072;6.678;2023-03-20T04:05:17;172.80;;;164.30;;
3000;SDS011;1510;51.072;6.678;2023-03-20T04:07:46;172.47;;;163.90;;
3000;SDS011;1510;51.072;6.678;2023-03-20T04:10:13;162.67;;;154.40;;
3000;SDS011;1510;51.072;6.678;2023-03-20T04:12:43;158.10;;;149.97;;
3000;SDS011;1510;51.072;6.678;2023-03-20T04:15:11;153.10;;;145.27;;
3000;SDS011;1510;51.072;6.678;2023-03-20T04:17:40;160.57;;;152.77;;
3000;SDS011;1510;51.072;6.678;2023-03-20T04:20:11;169.57;;;160.33;;
3000;SDS011;1510;51.072;6.678;2023-03-20T04:22:40;174.87;;;166.60;;
3000;SDS011;1510;51.072;6.678;2023-03-20T04:25:08;180.30;;;171.60;;
3000;SDS011;1510;51.072;6.678;2023-03-20T04:27:42;190.97;;;181.47;;
3000;SDS011;1510;51.072;6.678;2023-03-20T04:30:10;188.57;;;179.80;;
3000;SDS011;1510;51.072;6.678;2023-03-20T04:32:38;201.07;;;191.07;;
3000;SDS011;1510;51.072;6.678;2023-03-20T04:35:05;209.13;;;199.10;;
3000;SDS011;1510;51.072;6.678;2023-03-20T04:37:33;221.13;;;210.10;;
3000;SDS011;1510;51.072;6.678;2023-03-20T04:40:01;238.77;;;226.53;;
3000;SDS011;1510;51.072;6.678;2023-03-20T04:42:28;244.83;;;232.53;;
3000;SDS011;1510;51.072;6.678;2023-03-20T04:45:05;258.30;;;245.70;;
3000;SDS011;1510;51.072;6.678;2023-03-20T04:47:33;281.33;;;266.37;;
3000;SDS011;1510;51.072;6.678;2023-03-20T04:50:01;282.50;;;268.13;;
3000;SDS011;1510;51.072;6.678;2023-03-20T04:52:27;285.50;;;270.73;;
3000;SDS011;1510;51.072;6.678;2023-03-20T04:54:55;297.57;;;281.17;;
3000;SDS011;1510;51.072;6.678;2023-03-20T04:57:22;298.97;;;282.70;;
3000;SDS011;1510;51.072;6.678;2023-03-20T04:59:49;310.27;;;293.83;;
3000;SDS011;1510;51.072;6.678;2023-03-20T05:02:19;332.67;;;315.07;;
3000;SDS011;1510;51.072;6.678;2023-03-20T05:04:47;349.53;;;331.17;;
3000;SDS011;1510;51.072;6.678;2023-03-20T05:07:14;381.47;;;361.37;;
3000;SDS011;1510;51.072;6.678;2023-03-20T05:09:41;420.23;;;398.17;;
3000;SDS011;1510;51.072;6.678;2023-03-20T05:12:08;446.83;;;422.70;;
3000;SDS011;1510;51.072;6.678;2023-03-20T05:14:35;475.67;;;449.17;;
3000;SDS011;1510;51.072;6.678;2023-03-20T05:17:04;503.13;;;473.90;;
3000;SDS011;1510;51.072;6.678;2023-03-20T05:19:45;527.97;;;498.97;;
3000;SDS011;1510;51.072;6.678;2023-03-20T05:22:29;555.93;;;524.67;;
3000;SDS011;1510;51.072;6.678;2023-03-20T05:24:56;561.87;;;529.97;;
3000;SDS011;1510;51.072;6.678;2023-03-20T05:27:25;569.60;;;536.90;;
3000;SDS011;1510;51.072;6.678;2023-03-20T05:29:51;566.07;;;533.17;;
3000;SDS011;1510;51.072;6.678;2023-03-20T05:32:18;557.93;;;526.00;;
3000;SDS011;1510;51.072;6.678;2023-03-20T05:34:47;557.33;;;524.17;;
3000;SDS011;1510;51.072;6.678;2023-03-20T05:37:16;552.20;;;519.40;;
3000;SDS011;1510;51.072;6.678;2023-03-20T05:39:42;555.47;;;523.07;;
3000;SDS011;1510;51.072;6.678;2023-03-20T05:42:09;557.53;;;525.40;;
3000;SDS011;1510;51.072;6.678;2023-03-20T05:44:37;567.23;;;534.13;;
3000;SDS011;1510;51.072;6.678;2023-03-20T05:47:05;566.33;;;533.23;;
3000;SDS011;1510;51.072;6.678;2023-03-20T05:49:32;569.57;;;536.27;;
3000;SDS011;1510;51.072;6.678;2023-03-20T05:52:01;577.57;;;543.97;;
3000;SDS011;1510;51.072;6.678;2023-03-20T05:54:28;581.13;;;546.60;;
3000;SDS011;1510;51.072;6.678;2023-03-20T05:56:55;575.43;;;541.83;;
3000;SDS011;1510;51.072;6.678;2023-03-20T05:59:22;579.20;;;544.23;;
3000;SDS011;1510;51.072;6.678;2023-03-20T06:01:50;569.77;;;534.57;;
3000;SDS011;1510;51.072;6.678;2023-03-20T06:04:18;567.23;;;532.87;;
3000;SDS011;1510;51.072;6.678;2023-03-20T06:06:46;561.33;;;527.97;;
3000;SDS011;1510;51.072;6.678;2023-03-20T06:09:14;540.60;;;507.90;;
3000;SDS011;1510;51.072;6.678;2023-03-20T06:11:41;522.17;;;492.10;;
3000;SDS011;1510;51.072;6.678;2023-03-20T06:14:10;507.33;;;477.13;;
3000;SDS011;1510;51.072;6.678;2023-03-20T06:16:37;476.47;;;449.60;;
3000;SDS011;1510;51.072;6.678;2023-03-20T06:19:04;435.50;;;410.70;;
3000;SDS011;1510;51.072;6.678;2023-03-20T06:21:31;412.00;;;388.80;;
3000;SDS011;1510;51.072;6.678;2023-03-20T06:23:58;386.40;;;365.40;;
3000;SDS011;1510;51.072;6.678;2023-03-20T06:26:26;361.80;;;341.60;;
3000;SDS011;1510;51.072;6.678;2023-03-20T06:28:54;349.87;;;330.70;;
3000;SDS011;1510;51.072;6.678;2023-03-20T06:31:22;347.03;;;328.20;;
3000;SDS011;1510;51.072;6.678;2023-03-20T06:33:49;325.83;;;307.40;;
3000;SDS011;1510;51.072;6.678;2023-03-20T06:36:16;305.73;;;288.23;;
3000;SDS011;1510;51.072;6.678;2023-03-20T06:38:43;293.97;;;277.97;;
3000;SDS011;1510;51.072;6.678;2023-03-20T06:41:10;298.07;;;280.83;;
3000;SDS011;1510;51.072;6.678;2023-03-20T06:43:38;269.63;;;255.07;;
3000;SDS011;1510;51.072;6.678;2023-03-20T06:46:07;243.60;;;230.40;;
3000;SDS011;1510;51.072;6.678;2023-03-20T06:48:34;225.80;;;213.50;;
3000;SDS011;1510;51.072;6.678;2023-03-20T06:51:03;209.83;;;199.00;;
3000;SDS011;1510;51.072;6.678;2023-03-20T06:53:30;185.73;;;176.43;;
3000;SDS011;1510;51.072;6.678;2023-03-20T06:55:57;196.40;;;186.23;;
3000;SDS011;1510;51.072;6.678;2023-03-20T06:58:24;187.73;;;177.77;;
3000;SDS011;1510;51.072;6.678;2023-03-20T07:00:52;189.47;;;179.70;;
3000;SDS011;1510;51.072;6.678;2023-03-20T07:03:19;186.47;;;176.80;;
3000;SDS011;1510;51.072;6.678;2023-03-20T07:05:46;174.70;;;165.97;;
3000;SDS011;1510;51.072;6.678;2023-03-20T07:08:13;169.73;;;160.97;;
3000;SDS011;1510;51.072;6.678;2023-03-20T07:10:40;168.53;;;159.63;;
3000;SDS011;1510;51.072;6.678;2023-03-20T07:13:08;164.10;;;155.53;;
3000;SDS011;1510;51.072;6.678;2023-03-20T07:15:36;152.80;;;145.40;;
3000;SDS011;1510;51.072;6.678;2023-03-20T07:18:04;103.77;;;97.87;;
3000;SDS011;1510;51.072;6.678;2023-03-20T07:20:31;50.70;;;47.10;;
3000;SDS011;1510;51.072;6.678;2023-03-20T07:22:58;31.10;;;28.10;;
3000;SDS011;1510;51.072;6.678;2023-03-20T07:25:26;26.70;;;17.43;;
3000;SDS011;1510;51.072;6.678;2023-03-20T07:27:53;25.70;;;13.37;;
3000;SDS011;1510;51.072;6.678;2023-03-20T07:30:20;20.13;;;12.70;;
3000;SDS011;1510;51.072;6.678;2023-03-20T07:32:47;22.87;;;10.53;;
3000;SDS011;1510;51.072;6.678;2023-03-20T07:35:15;18.63;;;11.97;;
3000;SDS011;1510;51.072;6.678;2023-03-20T07:37:42;18.40;;;10.47;;
3000;SDS011;1510;51.072;6.678;2023-03-20T07:40:10;16.97;;;10.43;;
3000;SDS011;1510;51.072;6.678;2023-03-20T07:42:37;20.13;;;9.67;;
3000;SDS011;1510;51.072;6.678;2023-03-20T07:45:04;18.40;;;11.70;;
3000;SDS011;1510;51.072;6.678;2023-03-20T07:47:33;23.80;;;9.77;;
3000;SDS011;1510;51.072;6.678;2023-03-20T07:50:02;15.20;;;8.20;;
3000;SDS011;1510;51.072;6.678;2023-03-20T07:52:31;15.57;;;8.57;;
3000;SDS011;1510;51.072;6.678;2023-03-20T07:54:58;18.87;;;9.30;;
3000;SDS011;1510;51.072;6.678;2023-03-20T07:57:25;13.93;;;7.60;;
3000;SDS011;1510;51.072;6.678;2023-03-20T07:59:52;17.63;;;9.00;;
3000;SDS011;1510;51.072;6.678;2023-03-20T08:02:18;14.77;;;8.20;;
3000;SDS011;1510;51.072;6.678;2023-03-20T08:04:45;17.07;;;7.70;;
3000;SDS011;1510;51.072;6.678;2023-03-20T08:07:13;18.50;;;10.17;;
3000;SDS011;1510;51.072;6.678;2023-03-20T08:09:42;25.07;;;9.47;;
3000;SDS011;1510;51.072;6.678;2023-03-20T08:12:11;12.80;;;7.07;;
3000;SDS011;1510;51.072;6.678;2023-03-20T08:14:37;16.17;;;7.43;;
3000;SDS011;1510;51.072;6.678;2023-03-20T08:17:04;13.40;;;7.70;;
3000;SDS011;1510;51.072;6.678;2023-03-20T08:19:31;18.00;;;7.60;;
3000;SDS011;1510;51.072;6.678;2023-03-20T08:21:58;16.73;;;7.83;;
3000;SDS011;1510;51.072;6.678;2023-03-20T08:24:24;14.70;;;7.00;;
3000;SDS011;1510;51.072;6.678;2023-03-20T08:26:53;12.83;;;7.70;;
3000;SDS011;1510;51.072;6.678;2023-03-20T08:29:20;16.90;;;8.40;;
3000;SDS011;1510;51.072;6.678;2023-03-20T08:31:47;16.20;;;7.00;;
3000;SDS011;1510;51.072;6.678;2023-03-20T08:34:14;14.80;;;7.13;;
3000;SDS011;1510;51.072;6.678;2023-03-20T08:36:42;17.23;;;7.23;;
3000;SDS011;1510;51.072;6.678;2023-03-20T08:39:09;17.73;;;7.40;;
3000;SDS011;1510;51.072;6.678;2023-03-20T08:41:36;12.77;;;6.33;;
3000;SDS011;1510;51.072;6.678;2023-03-20T08:44:07;14.53;;;8.00;;
3000;SDS011;1510;51.072;6.678;2023-03-20T08:46:34;16.83;;;8.53;;
3000;SDS011;1510;51.072;6.678;2023-03-20T08:49:00;21.40;;;7.50;;
3000;SDS011;1510;51.072;6.678;2023-03-20T08:51:29;15.03;;;7.00;;
3000;SDS011;1510;51.072;6.678;2023-03-20T08:53:56;14.60;;;7.67;;
3000;SDS011;1510;51.072;6.678;2023-03-20T08:56:24;13.57;;;7.30;;
3000;SDS011;1510;51.072;6.678;2023-03-20T08:58:50;14.90;;;7.03;;
3000;SDS011;1510;51.072;6.678;2023-03-20T09:01:20;16.50;;;7.43;;
3000;SDS011;1510;51.072;6.678;2023-03-20T09:03:47;14.37;;;5.87;;
3000;SDS011;1510;51.072;6.678;2023-03-20T09:06:15;14.00;;;6.40;;
3000;SDS011;1510;51.072;6.678;2023-03-20T09:08:41;16.77;;;6.73;;
3000;SDS011;1510;51.072;6.678;2023-03-20T09:11:08;13.43;;;7.43;;
3000;SDS011;1510;51.072;6.678;2023-03-20T09:13:36;11.50;;;5.57;;
3000;SDS011;1510;51.072;6.678;2023-03-20T09:16:03;16.02;;;7.45;;
3000;SDS011;1510;51.072;6.678;2023-03-20T09:18:32;16.37;;;6.60;;
3000;SDS011;1510;51.072;6.678;2023-03-20T09:20:58;16.93;;;7.20;;
3000;SDS011;1510;51.072;6.678;2023-03-20T09:23:25;19.30;;;6.50;;
3000;SDS011;1510;51.072;6.678;2023-03-20T09:25:55;13.33;;;6.20;;
3000;SDS011;1510;51.072;6.678;2023-03-20T09:28:22;13.13;;;6.13;;
3000;SDS011;1510;51.072;6.678;2023-03-20T09:30:53;15.67;;;6.93;;
3000;SDS011;1510;51.072;6.678;2023-03-20T09:33:21;18.50;;;6.70;;
3000;SDS011;1510;51.072;6.678;2023-03-20T09:35:50;14.93;;;5.03;;
3000;SDS011;1510;51.072;6.678;2023-03-20T09:38:17;10.13;;;4.40;;
3000;SDS011;1510;51.072;6.678;2023-03-20T09:40:49;12.97;;;5.13;;
3000;SDS011;1510;51.072;6.678;2023-03-20T09:43:24;10.30;;;3.60;;
3000;SDS011;1510;51.072;6.678;2023-03-20T09:46:14;12.40;;;4.67;;
3000;SDS011;1510;51.072;6.678;2023-03-20T09:48:53;8.80;;;4.40;;
3000;SDS011;1510;51.072;6.678;2023-03-20T09:51:30;9.17;;;3.33;;
3000;SDS011;1510;51.072;6.678;2023-03-20T09:54:02;11.17;;;3.43;;
3000;SDS011;1510;51.072;6.678;2023-03-20T09:56:32;8.20;;;3.93;;
3000;SDS011;1510;51.072;6.678;2023-03-20T09:59:00;11.10;;;3.27;;
3000;SDS011;1510;51.072;6.678;2023-03-20T10:01:29;8.87;;;3.70;;
3000;SDS011;1510;51.072;6.678;2023-03-20T10:04:02;13.93;;;3.60;;
3000;SDS011;1510;51.072;6.678;2023-03-20T10:06:34;6.93;;;3.23;;
3000;SDS011;1510;51.072;6.678;2023-03-20T10:09:01;10.90;;;3.03;;
3000;SDS011;1510;51.072;6.678;2023-03-20T10:11:43;11.40;;;3.93;;
3000;SDS011;1510;51.072;6.678;2023-03-20T10:14:23;8.67;;;3.20;;
3000;SDS011;1510;51.072;6.678;2023-03-20T10:17:03;11.20;;;3.10;;
3000;SDS011;1510;51.072;6.678;2023-03-20T10:19:41;21.47;;;3.30;;
3000;SDS011;1510;51.072;6.678;2023-03-20T10:22:13;8.87;;;4.13;;
3000;SDS011;1510;51.072;6.678;2023-03-20T10:24:47;11.73;;;3.97;;
3000;SDS011;1510;51.072;6.678;2023-03-20T10:27:20;11.33;;;3.57;;
3000;SDS011;1510;51.072;6.678;2023-03-20T10:29:51;12.00;;;4.27;;
3000;SDS011;1510;51.072;6.678;2023-03-20T10:32:28;10.83;;;4.70;;
3000;SDS011;1510;51.072;6.678;2023-03-20T10:37:53;8.83;;;4.23;;
3000;SDS011;1510;51.072;6.678;2023-03-20T10:40:35;18.37;;;4.37;;
3000;SDS011;1510;51.072;6.678;2023-03-20T10:43:08;10.07;;;4.53;;
3000;SDS011;1510;51.072;6.678;2023-03-20T10:45:41;11.10;;;4.50;;
3000;SDS011;1510;51.072;6.678;2023-03-20T10:48:15;10.57;;;4.30;;
3000;SDS011;1510;51.072;6.678;2023-03-20T10:50:47;12.43;;;4.60;;
3000;SDS011;1510;51.072;6.678;2023-03-20T10:53:25;10.10;;;3.23;;
3000;SDS011;1510;51.072;6.678;2023-03-20T10:55:58;7.23;;;3.97;;
3000;SDS011;1510;51.072;6.678;2023-03-20T10:58:28;8.10;;;4.00;;
3000;SDS011;1510;51.072;6.678;2023-03-20T11:00:57;13.83;;;4.10;;
3000;SDS011;1510;51.072;6.678;2023-03-20T11:03:25;15.63;;;5.90;;
3000;SDS011;1510;51.072;6.678;2023-03-20T11:05:54;9.87;;;3.83;;
3000;SDS011;1510;51.072;6.678;2023-03-20T11:08:29;13.73;;;4.87;;
3000;SDS011;1510;51.072;6.678;2023-03-20T11:11:01;12.73;;;4.53;;
3000;SDS011;1510;51.072;6.678;2023-03-20T11:13:30;16.07;;;4.33;;
3000;SDS011;1510;51.072;6.678;2023-03-20T11:16:07;12.20;;;4.73;;
3000;SDS011;1510;51.072;6.678;2023-03-20T11:18:36;10.20;;;4.20;;
3000;SDS011;1510;51.072;6.678;2023-03-20T11:21:07;10.00;;;4.70;;
3000;SDS011;1510;51.072;6.678;2023-03-20T11:23:40;13.40;;;4.50;;
3000;SDS011;1510;51.072;6.678;2023-03-20T11:26:10;17.07;;;5.90;;
3000;SDS011;1510;51.072;6.678;2023-03-20T11:28:40;9.17;;;4.00;;
3000;SDS011;1510;51.072;6.678;2023-03-20T11:31:15;14.17;;;4.00;;
3000;SDS011;1510;51.072;6.678;2023-03-20T11:33:45;9.97;;;3.57;;
3000;SDS011;1510;51.072;6.678;2023-03-20T11:36:19;10.97;;;4.00;;
3000;SDS011;1510;51.072;6.678;2023-03-20T11:38:50;8.17;;;3.50;;
3000;SDS011;1510;51.072;6.678;2023-03-20T11:41:21;8.20;;;3.90;;
3000;SDS011;1510;51.072;6.678;2023-03-20T11:43:50;17.03;;;6.10;;
3000;SDS011;1510;51.072;6.678;2023-03-20T11:46:18;6.10;;;2.80;;
3000;SDS011;1510;51.072;6.678;2023-03-20T11:48:59;7.77;;;2.67;;
3000;SDS011;1510;51.072;6.678;2023-03-20T11:51:29;9.73;;;2.47;;
3000;SDS011;1510;51.072;6.678;2023-03-20T11:53:59;9.50;;;2.40;;
3000;SDS011;1510;51.072;6.678;2023-03-20T11:56:29;7.60;;;2.90;;
3000;SDS011;1510;51.072;6.678;2023-03-20T11:58:58;11.40;;;3.77;;
3000;SDS011;1510;51.072;6.678;2023-03-20T12:01:36;7.07;;;2.77;;
3000;SDS011;1510;51.072;6.678;2023-03-20T12:04:09;5.93;;;2.20;;
3000;SDS011;1510;51.072;6.678;2023-03-20T12:06:40;7.97;;;2.80;;
3000;SDS011;1510;51.072;6.678;2023-03-20T12:09:22;7.00;;;2.77;;
3000;SDS011;1510;51.072;6.678;2023-03-20T12:12:04;8.13;;;3.30;;
3000;SDS011;1510;51.072;6.678;2023-03-20T12:14:39;9.03;;;3.53;;
3000;SDS011;1510;51.072;6.678;2023-03-20T12:17:24;7.00;;;2.90;;
3000;SDS011;1510;51.072;6.678;2023-03-20T12:20:01;9.10;;;3.03;;
3000;SDS011;1510;51.072;6.678;2023-03-20T12:22:32;9.23;;;3.10;;
3000;SDS011;1510;51.072;6.678;2023-03-20T12:25:06;10.83;;;3.47;;
3000;SDS011;1510;51.072;6.678;2023-03-20T12:27:42;10.53;;;3.73;;
3000;SDS011;1510;51.072;6.678;2023-03-20T12:30:13;12.90;;;3.90;;
3000;SDS011;1510;51.072;6.678;2023-03-20T12:32:45;8.63;;;3.43;;
3000;SDS011;1510;51.072;6.678;2023-03-20T12:35:18;9.63;;;3.13;;
3000;SDS011;1510;51.072;6.678;2023-03-20T12:37:48;6.67;;;3.03;;
3000;SDS011;1510;51.072;6.678;2023-03-20T12:40:18;6.03;;;2.60;;
3000;SDS011;1510;51.072;6.678;2023-03-20T12:42:56;9.50;;;3.53;;
3000;SDS011;1510;51.072;6.678;2023-03-20T12:45:30;10.63;;;3.93;;
3000;SDS011;1510;51.072;6.678;2023-03-20T12:48:09;11.27;;;3.23;;
3000;SDS011;1510;51.072;6.678;2023-03-20T12:50:44;9.90;;;3.20;;
3000;SDS011;1510;51.072;6.678;2023-03-20T12:53:27;10.80;;;3.50;;
3000;SDS011;1510;51.072;6.678;2023-03-20T12:56:07;23.03;;;4.20;;
3000;SDS011;1510;51.072;6.678;2023-03-20T12:58:43;6.87;;;2.77;;
3000;SDS011;1510;51.072;6.678;2023-03-20T13:01:15;9.37;;;3.47;;
3000;SDS011;1510;51.072;6.678;2023-03-20T13:03:57;9.23;;;3.20;;
3000;SDS011;1510;51.072;6.678;2023-03-20T13:06:42;8.63;;;3.27;;
3000;SDS011;1510;51.072;6.678;2023-03-20T13:09:34;6.57;;;3.07;;
3000;SDS011;1510;51.072;6.678;2023-03-20T13:12:37;10.03;;;3.10;;
3000;SDS011;1510;51.072;6.678;2023-03-20T13:15:20;12.83;;;3.63;;
3000;SDS011;1510;51.072;6.678;2023-03-20T13:17:55;15.30;;;3.90;;
3000;SDS011;1510;51.072;6.678;2023-03-20T13:20:27;12.43;;;2.93;;
3000;SDS011;1510;51.072;6.678;2023-03-20T13:22:59;12.63;;;3.57;;
3000;SDS011;1510;51.072;6.678;2023-03-20T13:25:41;8.37;;;3.10;;
3000;SDS011;1510;51.072;6.678;2023-03-20T13:28:29;8.57;;;2.47;;
3000;SDS011;1510;51.072;6.678;2023-03-20T13:31:05;9.80;;;3.00;;
3000;SDS011;1510;51.072;6.678;2023-03-20T13:33:45;10.80;;;3.27;;
3000;SDS011;1510;51.072;6.678;2023-03-20T13:36:24;12.63;;;3.63;;
3000;SDS011;1510;51.072;6.678;2023-03-20T13:39:02;12.60;;;3.33;;
3000;SDS011;1510;51.072;6.678;2023-03-20T13:41:38;7.30;;;3.60;;
3000;SDS011;1510;51.072;6.678;2023-03-20T13:44:07;12.27;;;3.80;;
3000;SDS011;1510;51.072;6.678;2023-03-20T13:46:38;10.63;;;3.30;;
3000;SDS011;1510;51.072;6.678;2023-03-20T13:49:12;11.00;;;3.67;;
3000;SDS011;1510;51.072;6.678;2023-03-20T13:51:45;8.63;;;3.30;;
3000;SDS011;1510;51.072;6.678;2023-03-20T13:54:24;14.57;;;3.20;;
3000;SDS011;1510;51.072;6.678;2023-03-20T13:57:08;9.93;;;3.70;;
3000;SDS011;1510;51.072;6.678;2023-03-20T13:59:45;15.73;;;6.50;;
3000;SDS011;1510;51.072;6.678;2023-03-20T14:02:22;11.50;;;4.00;;
3000;SDS011;1510;51.072;6.678;2023-03-20T14:05:02;9.10;;;3.40;;
3000;SDS011;1510;51.072;6.678;2023-03-20T14:07:32;9.50;;;2.80;;
3000;SDS011;1510;51.072;6.678;2023-03-20T14:13:03;11.13;;;3.57;;
3000;SDS011;1510;51.072;6.678;2023-03-20T14:15:35;11.23;;;4.70;;
3000;SDS011;1510;51.072;6.678;2023-03-20T14:18:14;20.30;;;3.97;;
3000;SDS011;1510;51.072;6.678;2023-03-20T14:20:50;11.73;;;3.60;;
3000;SDS011;1510;51.072;6.678;2023-03-20T14:23:38;10.07;;;4.30;;
3000;SDS011;1510;51.072;6.678;2023-03-20T14:26:08;11.35;;;4.07;;
3000;SDS011;1510;51.072;6.678;2023-03-20T14:28:50;9.03;;;3.20;;
3000;SDS011;1510;51.072;6.678;2023-03-20T14:31:30;14.17;;;4.00;;
3000;SDS011;1510;51.072;6.678;2023-03-20T14:34:14;18.13;;;3.77;;
3000;SDS011;1510;51.072;6.678;2023-03-20T14:36:44;10.70;;;3.60;;
3000;SDS011;1510;51.072;6.678;2023-03-20T14:39:25;13.30;;;3.47;;
3000;SDS011;1510;51.072;6.678;2023-03-20T14:42:14;7.60;;;2.80;;
3000;SDS011;1510;51.072;6.678;2023-03-20T14:44:50;9.03;;;3.27;;
3000;SDS011;1510;51.072;6.678;2023-03-20T14:47:33;11.60;;;3.23;;
3000;SDS011;1510;51.072;6.678;2023-03-20T14:50:16;12.03;;;4.33;;
3000;SDS011;1510;51.072;6.678;2023-03-20T14:52:54;8.00;;;3.00;;
3000;SDS011;1510;51.072;6.678;2023-03-20T14:55:33;14.13;;;4.07;;
3000;SDS011;1510;51.072;6.678;2023-03-20T14:58:34;8.80;;;3.03;;
3000;SDS011;1510;51.072;6.678;2023-03-20T15:01:33;17.73;;;3.70;;
3000;SDS011;1510;51.072;6.678;2023-03-20T15:04:21;11.97;;;3.90;;
3000;SDS011;1510;51.072;6.678;2023-03-20T15:06:52;12.50;;;2.93;;
3000;SDS011;1510;51.072;6.678;2023-03-20T15:09:22;9.90;;;3.80;;
3000;SDS011;1510;51.072;6.678;2023-03-20T15:11:52;10.57;;;4.10;;
3000;SDS011;1510;51.072;6.678;2023-03-20T15:14:24;7.50;;;3.27;;
3000;SDS011;1510;51.072;6.678;2023-03-20T15:16:57;9.40;;;3.17;;
3000;SDS011;1510;51.072;6.678;2023-03-20T15:19:31;12.80;;;3.60;;
3000;SDS011;1510;51.072;6.678;2023-03-20T15:22:09;13.90;;;3.47;;
3000;SDS011;1510;51.072;6.678;2023-03-20T15:24:40;10.00;;;3.40;;
3000;SDS011;1510;51.072;6.678;2023-03-20T15:27:08;14.20;;;3.53;;
3000;SDS011;1510;51.072;6.678;2023-03-20T15:29:37;10.67;;;3.33;;
3000;SDS011;1510;51.072;6.678;2023-03-20T15:32:12;10.90;;;2.90;;
3000;SDS011;1510;51.072;6.678;2023-03-20T15:34:40;7.20;;;2.67;;